TimeCDT,TemperatureF,Dew PointF,Humidity,Sea Level PressureIn,VisibilityMPH,Wind Direction,Wind SpeedMPH,Gust SpeedMPH,PrecipitationIn,Events,Conditions,WindDirDegrees,DateUTC
12:14 AM,48.9,38.7,68,29.83,7.0,WSW,24.2,31.1,N/A,,Clear,240,2012-10-04 05:14:00
12:34 AM,48.2,39.4,72,29.83,7.0,WSW,25.3,42.6,N/A,,Clear,250,2012-10-04 05:34:00
12:54 AM,48.2,40.5,75,29.82,7.0,West,27.6,38.0,N/A,,Clear,260,2012-10-04 05:54:00
1:14 AM,48.2,40.5,75,29.83,7.0,West,33.4,46.0,N/A,,Clear,270,2012-10-04 06:14:00
1:34 AM,47.7,40.1,75,29.86,7.0,West,35.7,46.0,N/A,,Clear,270,2012-10-04 06:34:00
1:54 AM,46.8,39.6,76,29.88,7.0,West,34.5,44.9,N/A,,Mostly Cloudy,280,2012-10-04 06:54:00
2:14 AM,46.4,39.2,76,29.91,7.0,West,31.1,46.0,N/A,,Overcast,280,2012-10-04 07:14:00
2:34 AM,45.0,38.7,79,29.92,10.0,West,36.8,47.2,N/A,,Overcast,270,2012-10-04 07:34:00
2:54 AM,43.9,38.3,81,29.94,10.0,West,28.8,48.3,N/A,,Mostly Cloudy,280,2012-10-04 07:54:00
3:14 AM,44.2,38.5,80,29.94,10.0,West,26.5,31.1,N/A,,Mostly Cloudy,280,2012-10-04 08:14:00
3:34 AM,43.7,37.6,79,29.95,10.0,West,28.8,42.6,N/A,,Overcast,270,2012-10-04 08:34:00
3:54 AM,43.3,37.6,80,29.96,10.0,West,29.9,36.8,N/A,,Overcast,270,2012-10-04 08:54:00
4:14 AM,42.8,37.4,81,29.97,10.0,West,28.8,36.8,N/A,,Overcast,280,2012-10-04 09:14:00
4:33 AM,42.4,36.9,81,29.97,10.0,WNW,26.5,36.8,N/A,,Overcast,290,2012-10-04 09:33:00
4:54 AM,41.4,35.4,79,29.99,10.0,WNW,25.3,35.7,N/A,,Overcast,290,2012-10-04 09:54:00
5:14 AM,40.1,34.3,80,29.99,10.0,WNW,24.2,28.8,N/A,,Overcast,290,2012-10-04 10:14:00
5:34 AM,40.1,34.3,80,30.00,10.0,West,20.7,29.9,N/A,,Overcast,280,2012-10-04 10:34:00
5:54 AM,39.6,34.5,82,30.02,10.0,WNW,21.9,-,N/A,,Overcast,290,2012-10-04 10:54:00
6:14 AM,39.4,32.9,78,30.02,10.0,WNW,19.6,28.8,N/A,,Overcast,290,2012-10-04 11:14:00
6:34 AM,39.2,32.9,78,30.03,10.0,WNW,21.9,32.2,N/A,,Overcast,290,2012-10-04 11:34:00
6:54 AM,39.4,33.6,80,30.04,10.0,West,26.5,33.4,N/A,,Overcast,280,2012-10-04 11:54:00
7:14 AM,39.6,33.8,80,30.05,10.0,WNW,23.0,32.2,N/A,,Overcast,290,2012-10-04 12:14:00
7:39 AM,38.7,33.3,81,30.05,10.0,WNW,24.2,33.4,N/A,,Overcast,290,2012-10-04 12:39:00
7:54 AM,38.5,33.8,83,30.06,10.0,WNW,27.6,36.8,N/A,,Overcast,290,2012-10-04 12:54:00
8:14 AM,38.7,32.9,80,30.07,10.0,WNW,29.9,38.0,N/A,,Overcast,290,2012-10-04 13:14:00
8:34 AM,39.4,33.4,79,30.08,10.0,WNW,21.9,33.4,N/A,,Overcast,300,2012-10-04 13:34:00
8:54 AM,39.7,32.5,75,30.08,10.0,WNW,32.2,38.0,N/A,,Overcast,300,2012-10-04 13:54:00
9:14 AM,39.6,32.9,77,30.10,10.0,WNW,28.8,40.3,N/A,,Overcast,300,2012-10-04 14:14:00
9:33 AM,40.1,32.0,73,30.11,10.0,WNW,29.9,38.0,N/A,,Overcast,300,2012-10-04 14:33:00
9:55 AM,40.3,32.0,72,30.12,10.0,NW,26.5,36.8,N/A,,Overcast,310,2012-10-04 14:55:00
10:14 AM,41.2,31.6,69,30.13,10.0,WNW,28.8,35.7,N/A,,Overcast,300,2012-10-04 15:14:00
10:34 AM,41.9,31.1,66,30.14,10.0,NW,26.5,38.0,N/A,,Overcast,310,2012-10-04 15:34:00
10:54 AM,43.0,30.7,62,30.13,10.0,NW,27.6,38.0,N/A,,Overcast,310,2012-10-04 15:54:00
11:16 AM,43.7,30.2,59,30.14,10.0,WNW,32.2,38.0,N/A,,Overcast,300,2012-10-04 16:16:00
11:36 AM,44.1,30.2,58,30.15,10.0,WNW,32.2,39.1,N/A,,Overcast,290,2012-10-04 16:36:00
11:56 AM,44.1,30.2,58,30.16,10.0,WNW,25.3,35.7,N/A,,Overcast,290,2012-10-04 16:56:00
12:14 PM,43.9,29.8,58,30.16,10.0,WNW,28.8,40.3,N/A,,Overcast,300,2012-10-04 17:14:00
12:34 PM,44.2,30.0,57,30.18,10.0,WNW,27.6,33.4,N/A,,Overcast,290,2012-10-04 17:34:00
12:54 PM,44.1,30.0,58,30.19,10.0,WNW,24.2,34.5,N/A,,Overcast,290,2012-10-04 17:54:00
1:35 PM,45.5,29.5,54,30.19,10.0,West,20.7,33.4,N/A,,Overcast,280,2012-10-04 18:35:00
1:53 PM,46.0,29.3,52,30.19,10.0,WNW,28.8,34.5,N/A,,Overcast,290,2012-10-04 18:53:00
2:14 PM,46.0,29.1,52,30.19,10.0,WNW,28.8,38.0,N/A,,Overcast,290,2012-10-04 19:14:00
2:34 PM,46.0,29.1,52,30.19,10.0,WNW,27.6,35.7,N/A,,Overcast,290,2012-10-04 19:34:00
2:54 PM,47.1,28.6,49,30.19,10.0,WNW,26.5,35.7,N/A,,Overcast,300,2012-10-04 19:54:00
3:15 PM,47.3,28.2,48,30.19,10.0,WNW,26.5,35.7,N/A,,Overcast,290,2012-10-04 20:15:00
3:34 PM,47.3,28.4,48,30.20,10.0,WNW,26.5,33.4,N/A,,Overcast,290,2012-10-04 20:34:00
3:54 PM,47.8,28.2,47,30.20,10.0,NW,21.9,32.2,N/A,,Overcast,310,2012-10-04 20:54:00
4:14 PM,47.5,27.7,46,30.20,10.0,WNW,25.3,33.4,N/A,,Overcast,300,2012-10-04 21:14:00
4:34 PM,46.4,28.4,50,30.21,10.0,WNW,23.0,32.2,N/A,,Overcast,300,2012-10-04 21:34:00
4:54 PM,45.5,28.2,51,30.21,10.0,NW,23.0,31.1,N/A,,Overcast,310,2012-10-04 21:54:00
5:14 PM,45.1,28.2,52,30.22,10.0,WNW,21.9,27.6,N/A,,Overcast,300,2012-10-04 22:14:00
5:34 PM,45.0,27.9,51,30.22,10.0,NW,23.0,32.2,N/A,,Overcast,310,2012-10-04 22:34:00
5:54 PM,44.6,28.2,53,30.23,10.0,WNW,24.2,28.8,N/A,,Overcast,300,2012-10-04 22:54:00
6:13 PM,43.7,27.7,53,30.24,10.0,WNW,21.9,-,N/A,,Overcast,300,2012-10-04 23:13:00
6:34 PM,43.3,28.4,56,30.24,10.0,WNW,21.9,27.6,N/A,,Overcast,290,2012-10-04 23:34:00
6:54 PM,43.0,28.4,56,30.24,10.0,WNW,20.7,26.5,N/A,,Overcast,290,2012-10-04 23:54:00
7:14 PM,42.8,28.0,56,30.24,10.0,WNW,18.4,25.3,N/A,,Overcast,290,2012-10-05 00:14:00
7:34 PM,42.4,27.5,56,30.25,10.0,WNW,19.6,27.6,N/A,,Overcast,300,2012-10-05 00:34:00
7:54 PM,42.3,27.0,55,30.26,10.0,WNW,23.0,28.8,N/A,,Overcast,300,2012-10-05 00:54:00
8:14 PM,42.1,27.3,56,30.26,10.0,NW,15.0,25.3,N/A,,Overcast,310,2012-10-05 01:14:00
8:34 PM,42.1,27.1,55,30.27,10.0,WNW,16.1,-,N/A,,Overcast,300,2012-10-05 01:34:00
8:54 PM,41.9,25.7,53,30.27,10.0,NW,16.1,-,N/A,,Overcast,310,2012-10-05 01:54:00
9:14 PM,41.9,26.4,54,30.27,10.0,WNW,17.3,-,N/A,,Overcast,300,2012-10-05 02:14:00
9:34 PM,41.9,26.6,55,30.27,10.0,NW,17.3,-,N/A,,Overcast,310,2012-10-05 02:34:00
9:54 PM,41.5,26.4,55,30.27,10.0,NW,13.8,-,N/A,,Overcast,310,2012-10-05 02:54:00
10:14 PM,41.7,26.6,55,30.27,10.0,WNW,11.5,-,N/A,,Overcast,290,2012-10-05 03:14:00
10:33 PM,41.9,26.4,54,30.27,10.0,WNW,15.0,18.4,N/A,,Overcast,300,2012-10-05 03:33:00
10:54 PM,41.7,26.8,55,30.27,10.0,WNW,12.7,-,N/A,,Overcast,300,2012-10-05 03:54:00
11:14 PM,41.5,27.7,58,30.27,10.0,WNW,13.8,-,N/A,,Overcast,290,2012-10-05 04:14:00
11:54 PM,41.4,28.2,60,30.27,10.0,WNW,11.5,21.9,N/A,,Overcast,290,2012-10-05 04:54:00